createdAt,value
2018-10-11T00:00:11.122Z,4.00
2018-10-11T00:01:11.147Z,4.00
2018-10-11T00:02:11.175Z,4.00
2018-10-11T00:03:11.183Z,4.00
2018-10-11T00:04:11.199Z,4.00
2018-10-11T00:05:11.217Z,4.00
2018-10-11T00:06:11.237Z,4.00
2018-10-11T00:07:11.251Z,4.00
2018-10-11T00:08:11.263Z,4.00
2018-10-11T00:09:11.286Z,4.00
2018-10-11T00:10:11.304Z,4.00
2018-10-11T00:11:11.388Z,4.00
2018-10-11T00:12:11.333Z,4.00
2018-10-11T00:13:11.351Z,4.00
2018-10-11T00:14:11.378Z,4.00
2018-10-11T00:15:11.392Z,4.00
2018-10-11T00:16:11.406Z,4.00
2018-10-11T00:17:11.463Z,4.00
2018-10-11T00:18:11.441Z,4.00
2018-10-11T00:19:11.458Z,4.00
2018-10-11T00:20:11.475Z,4.00
2018-10-11T00:21:11.489Z,4.00
2018-10-11T00:22:11.513Z,4.00
2018-10-11T00:23:11.530Z,4.00
2018-10-11T00:24:11.548Z,4.00
2018-10-11T00:25:11.566Z,4.00
2018-10-11T00:26:11.582Z,4.00
2018-10-11T00:27:11.598Z,4.00
2018-10-11T00:28:11.629Z,4.00
2018-10-11T00:29:11.642Z,4.00
2018-10-11T00:30:11.654Z,4.00
2018-10-11T00:31:11.674Z,4.00
2018-10-11T00:32:11.698Z,4.00
2018-10-11T00:33:11.702Z,4.00
2018-10-11T00:34:11.712Z,4.00
2018-10-11T00:35:11.737Z,4.00
2018-10-11T00:36:11.818Z,4.00
2018-10-11T00:37:11.766Z,4.00
2018-10-11T00:38:11.786Z,4.00
2018-10-11T00:39:11.800Z,4.00
2018-10-11T00:40:11.816Z,4.00
2018-10-11T00:41:11.842Z,4.00
2018-10-11T00:42:11.922Z,4.00
2018-10-11T00:43:11.874Z,4.00
2018-10-11T00:44:11.884Z,4.00
2018-10-11T00:45:11.908Z,4.00
2018-10-11T00:46:11.920Z,4.00
2018-10-11T00:47:11.940Z,4.00
2018-10-11T00:48:11.961Z,4.00
2018-10-11T00:49:11.975Z,4.00
2018-10-11T00:50:11.999Z,4.00
2018-10-11T00:51:12.008Z,4.00
2018-10-11T00:52:12.021Z,4.00
2018-10-11T00:53:12.044Z,4.00
2018-10-11T00:54:12.062Z,4.00
2018-10-11T00:55:12.124Z,4.00
2018-10-11T00:56:12.098Z,4.00
2018-10-11T00:57:12.111Z,4.00
2018-10-11T00:58:12.135Z,4.00
2018-10-11T00:59:12.144Z,4.00
2018-10-11T01:00:12.160Z,4.00
2018-10-11T01:01:12.199Z,4.00
2018-10-11T01:02:12.197Z,4.00
2018-10-11T01:03:12.214Z,4.00
2018-10-11T01:04:12.235Z,4.00
2018-10-11T01:05:12.248Z,4.00
2018-10-11T01:06:12.267Z,4.00
2018-10-11T01:07:12.295Z,4.00
2018-10-11T01:08:12.296Z,4.00
2018-10-11T01:09:12.362Z,4.00
2018-10-11T01:10:12.339Z,4.00
2018-10-11T01:11:12.349Z,4.00
2018-10-11T01:12:12.375Z,4.00
2018-10-11T01:13:12.391Z,4.00
2018-10-11T01:14:12.404Z,4.00
2018-10-11T01:15:12.426Z,4.00
2018-10-11T01:16:12.439Z,4.00
2018-10-11T01:17:12.462Z,4.00
2018-10-11T01:18:12.471Z,4.00
2018-10-11T01:19:12.488Z,4.00
2018-10-11T01:20:12.511Z,4.00
2018-10-11T01:21:12.525Z,4.00
2018-10-11T01:22:12.544Z,4.00
2018-10-11T01:23:12.564Z,4.00
2018-10-11T01:24:12.581Z,4.00
2018-10-11T01:25:12.593Z,4.00
2018-10-11T01:26:12.619Z,4.00
2018-10-11T01:27:12.640Z,4.00
2018-10-11T01:28:12.653Z,4.00
2018-10-11T01:29:12.668Z,4.00
2018-10-11T01:30:12.779Z,4.00
2018-10-11T01:31:12.742Z,4.00
2018-10-11T01:32:12.719Z,4.00
2018-10-11T01:33:12.728Z,4.00
2018-10-11T01:34:12.757Z,4.00
2018-10-11T01:35:12.768Z,4.00
2018-10-11T01:36:12.789Z,4.00
2018-10-11T01:37:12.873Z,4.00
2018-10-11T01:38:12.823Z,4.00
2018-10-11T01:39:12.840Z,4.00
2018-10-11T01:40:12.858Z,4.00
2018-10-11T01:41:12.877Z,4.00
2018-10-11T01:42:12.892Z,4.00
2018-10-11T01:43:12.964Z,4.00
2018-10-11T01:44:12.929Z,4.00
2018-10-11T01:45:12.946Z,4.00
2018-10-11T01:46:12.965Z,4.00
2018-10-11T01:47:12.980Z,4.00
2018-10-11T01:48:13.000Z,4.00
2018-10-11T01:49:13.026Z,4.00
2018-10-11T01:50:13.036Z,4.00
2018-10-11T01:51:13.046Z,4.00
2018-10-11T01:52:13.070Z,4.00
2018-10-11T01:53:13.079Z,4.00
2018-10-11T01:54:13.101Z,4.00
2018-10-11T01:55:13.184Z,4.00
2018-10-11T01:56:13.134Z,4.00
2018-10-11T01:57:13.153Z,4.00
2018-10-11T01:58:13.165Z,4.00
2018-10-11T01:59:13.178Z,4.00
2018-10-11T02:00:13.213Z,4.00
2018-10-11T02:01:13.231Z,4.00
2018-10-11T02:02:13.237Z,4.00
2018-10-11T02:03:13.259Z,4.00
2018-10-11T02:04:13.269Z,4.00
2018-10-11T02:05:13.284Z,4.00
2018-10-11T02:06:13.305Z,4.00
2018-10-11T02:07:13.403Z,4.00
2018-10-11T02:08:13.335Z,4.00
2018-10-11T02:09:13.361Z,4.00
2018-10-11T02:10:13.374Z,4.00
2018-10-11T02:11:13.396Z,4.00
2018-10-11T02:12:13.409Z,4.00
2018-10-11T02:13:13.504Z,4.00
2018-10-11T02:14:13.451Z,4.00
2018-10-11T02:15:13.461Z,4.00
2018-10-11T02:16:13.477Z,4.00
2018-10-11T02:17:13.496Z,4.00
2018-10-11T02:18:13.511Z,4.00
2018-10-11T02:19:13.621Z,4.00
2018-10-11T02:20:13.547Z,4.00
2018-10-11T02:21:13.563Z,4.00
2018-10-11T02:22:13.571Z,4.00
2018-10-11T02:23:13.592Z,4.00
2018-10-11T02:24:13.611Z,4.00
2018-10-11T02:25:13.637Z,4.00
2018-10-11T02:26:13.650Z,4.00
2018-10-11T02:27:13.665Z,4.00
2018-10-11T02:28:13.696Z,4.00
2018-10-11T02:29:13.696Z,4.00
2018-10-11T02:30:13.739Z,4.00
2018-10-11T02:31:13.774Z,4.00
2018-10-11T02:32:13.884Z,4.00
2018-10-11T02:33:13.770Z,4.00
2018-10-11T02:34:13.791Z,4.00
2018-10-11T02:35:13.801Z,4.00
2018-10-11T02:36:13.827Z,4.00
2018-10-11T02:37:13.897Z,4.00
2018-10-11T02:38:13.886Z,4.00
2018-10-11T02:39:13.883Z,4.00
2018-10-11T02:40:13.950Z,4.00
2018-10-11T02:41:13.951Z,4.00
2018-10-11T02:42:13.945Z,4.00
2018-10-11T02:43:13.951Z,4.00
2018-10-11T02:44:13.963Z,4.00
2018-10-11T02:45:13.976Z,4.00
2018-10-11T02:46:13.995Z,4.00
2018-10-11T02:47:14.021Z,4.00
2018-10-11T02:48:14.026Z,4.00
2018-10-11T02:49:14.037Z,4.00
2018-10-11T02:50:14.113Z,4.00
2018-10-11T02:51:14.082Z,4.00
2018-10-11T02:52:14.103Z,0.00
2018-10-11T02:53:14.112Z,0.00
2018-10-11T02:54:14.133Z,0.00
2018-10-11T02:55:14.140Z,0.00
2018-10-11T02:56:14.162Z,4.00
2018-10-11T02:57:14.184Z,4.00
2018-10-11T02:58:14.193Z,0.00
2018-10-11T02:59:14.218Z,0.00
2018-10-11T03:00:14.236Z,0.00
2018-10-11T03:01:14.250Z,4.00
2018-10-11T03:02:14.272Z,0.00
2018-10-11T03:03:22.008Z,4.00
2018-10-11T03:04:14.307Z,4.00
2018-10-11T03:05:14.324Z,0.00
2018-10-11T03:06:14.341Z,4.00
2018-10-11T03:07:14.356Z,4.00
2018-10-11T03:08:14.370Z,0.00
2018-10-11T03:09:14.481Z,0.00
2018-10-11T03:10:14.402Z,4.00
2018-10-11T03:11:14.430Z,4.00
2018-10-11T03:12:14.438Z,4.00
2018-10-11T03:13:14.483Z,0.00
2018-10-11T03:14:14.481Z,0.00
2018-10-11T03:15:14.488Z,4.00
2018-10-11T03:16:14.509Z,4.00
2018-10-11T03:17:14.525Z,4.00
2018-10-11T03:18:14.543Z,4.00
2018-10-11T03:19:14.564Z,4.00
2018-10-11T03:20:14.575Z,0.00
2018-10-11T03:21:14.602Z,0.00
2018-10-11T03:22:14.617Z,4.00
2018-10-11T03:23:14.627Z,4.00
2018-10-11T03:24:14.683Z,0.00
2018-10-11T03:25:14.668Z,0.00
2018-10-11T03:26:14.689Z,4.00
2018-10-11T03:27:14.704Z,4.00
2018-10-11T03:28:14.715Z,0.00
2018-10-11T03:29:14.725Z,0.00
2018-10-11T03:30:14.752Z,4.00
2018-10-11T03:31:14.764Z,4.00
2018-10-11T03:32:14.785Z,4.00
2018-10-11T03:33:14.887Z,4.00
2018-10-11T03:34:14.818Z,4.00
2018-10-11T03:35:14.832Z,4.00
2018-10-11T03:36:14.858Z,0.00
2018-10-11T03:37:14.864Z,4.00
2018-10-11T03:38:14.886Z,4.00
2018-10-11T03:39:14.955Z,4.00
2018-10-11T03:40:14.922Z,0.00
2018-10-11T03:41:14.948Z,4.00
2018-10-11T03:42:14.961Z,4.00
2018-10-11T03:43:14.980Z,4.00
2018-10-11T03:44:14.995Z,0.00
2018-10-11T03:45:15.007Z,0.00
2018-10-11T03:46:15.020Z,4.00
2018-10-11T03:47:15.043Z,0.00
2018-10-11T03:48:15.068Z,4.00
2018-10-11T03:49:15.072Z,4.00
2018-10-11T03:50:15.092Z,4.00
2018-10-11T03:51:15.140Z,0.00
2018-10-11T03:52:15.132Z,4.00
2018-10-11T03:53:15.148Z,4.00
2018-10-11T03:54:15.168Z,0.00
2018-10-11T03:55:15.182Z,0.00
2018-10-11T03:56:15.196Z,0.00
2018-10-11T03:57:15.213Z,0.00
2018-10-11T03:58:15.240Z,4.00
2018-10-11T03:59:15.252Z,0.00
2018-10-11T04:00:15.262Z,4.00
2018-10-11T04:01:15.286Z,0.00
2018-10-11T04:02:15.298Z,4.00
2018-10-11T04:03:15.320Z,0.00
2018-10-11T04:04:15.340Z,0.00
2018-10-11T04:05:15.356Z,0.00
2018-10-11T04:06:15.369Z,4.00
2018-10-11T04:07:15.394Z,4.00
2018-10-11T04:08:15.406Z,4.00
2018-10-11T04:09:15.494Z,4.00
2018-10-11T04:10:15.447Z,4.00
2018-10-11T04:11:15.461Z,0.00
2018-10-11T04:12:15.469Z,0.00
2018-10-11T04:13:15.487Z,4.00
2018-10-11T04:14:15.509Z,0.00
2018-10-11T04:15:15.530Z,0.00
2018-10-11T04:16:15.543Z,0.00
2018-10-11T04:17:15.562Z,0.00
2018-10-11T04:18:15.570Z,0.00
2018-10-11T04:19:15.592Z,0.00
2018-10-11T04:20:15.606Z,4.00
2018-10-11T04:21:15.621Z,0.00
2018-10-11T04:22:15.644Z,0.00
2018-10-11T04:23:15.660Z,0.00
2018-10-11T04:24:15.683Z,4.00
2018-10-11T04:25:15.695Z,4.00
2018-10-11T04:26:15.710Z,0.00
2018-10-11T04:27:15.734Z,0.00
2018-10-11T04:28:15.749Z,0.00
2018-10-11T04:29:15.769Z,0.00
2018-10-11T04:30:15.785Z,0.00
2018-10-11T04:31:15.798Z,0.00
2018-10-11T04:32:15.817Z,0.00
2018-10-11T04:33:15.845Z,0.00
2018-10-11T04:34:15.851Z,0.00
2018-10-11T04:35:15.874Z,0.00
2018-10-11T04:36:15.954Z,4.00
2018-10-11T04:37:15.904Z,0.00
2018-10-11T04:38:15.922Z,0.00
2018-10-11T04:39:15.948Z,0.00
2018-10-11T04:40:15.954Z,0.00
2018-10-11T04:41:15.963Z,0.00
2018-10-11T04:42:15.990Z,0.00
2018-10-11T04:43:16.198Z,0.00
2018-10-11T04:44:16.022Z,0.00
2018-10-11T04:45:16.046Z,0.00
2018-10-11T04:46:16.060Z,0.00
2018-10-11T04:47:16.076Z,0.00
2018-10-11T04:48:16.094Z,0.00
2018-10-11T04:49:16.116Z,0.00
2018-10-11T04:50:16.127Z,0.00
2018-10-11T04:51:16.145Z,0.00
2018-10-11T04:52:16.156Z,0.00
2018-10-11T04:53:16.175Z,4.00
2018-10-11T04:54:16.193Z,0.00
2018-10-11T04:55:16.216Z,0.00
2018-10-11T04:56:16.230Z,0.00
2018-10-11T04:57:16.249Z,0.00
2018-10-11T04:58:16.266Z,0.00
2018-10-11T04:59:16.276Z,0.00
2018-10-11T05:00:16.308Z,0.00
2018-10-11T05:01:16.316Z,0.00
2018-10-11T05:02:16.332Z,0.00
2018-10-11T05:03:16.345Z,0.00
2018-10-11T05:04:16.401Z,0.00
2018-10-11T05:05:16.433Z,0.00
2018-10-11T05:06:16.398Z,0.00
2018-10-11T05:07:16.416Z,0.00
2018-10-11T05:08:16.435Z,0.00
2018-10-11T05:09:16.457Z,0.00
2018-10-11T05:10:16.507Z,0.00
2018-10-11T05:11:16.487Z,0.00
2018-10-11T05:12:16.504Z,0.00
2018-10-11T05:13:16.521Z,0.00
2018-10-11T05:14:16.537Z,0.00
2018-10-11T05:15:16.557Z,0.00
2018-10-11T05:16:16.579Z,0.00
2018-10-11T05:17:16.657Z,0.00
2018-10-11T05:18:16.612Z,0.00
2018-10-11T05:19:16.625Z,0.00
2018-10-11T05:20:16.642Z,0.00
2018-10-11T05:21:16.671Z,0.00
2018-10-11T05:22:16.677Z,0.00
2018-10-11T05:23:16.764Z,0.00
2018-10-11T05:24:16.713Z,0.00
2018-10-11T05:25:16.729Z,0.00
2018-10-11T05:26:16.864Z,0.00
2018-10-11T05:27:16.766Z,0.00
2018-10-11T05:28:16.776Z,0.00
2018-10-11T05:29:16.832Z,4.00
2018-10-11T05:30:16.816Z,0.00
2018-10-11T05:31:16.832Z,0.00
2018-10-11T05:32:16.869Z,0.00
2018-10-11T05:33:16.866Z,0.00
2018-10-11T05:34:16.886Z,0.00
2018-10-11T05:35:16.912Z,0.00
2018-10-11T05:36:16.921Z,0.00
2018-10-11T05:37:16.936Z,0.00
2018-10-11T05:38:17.111Z,4.00
2018-10-11T05:39:16.972Z,4.00
2018-10-11T05:40:16.987Z,0.00
2018-10-11T05:41:17.079Z,0.00
2018-10-11T05:42:17.036Z,4.00
2018-10-11T05:43:17.045Z,4.00
2018-10-11T05:44:17.107Z,4.00
2018-10-11T05:45:17.079Z,0.00
2018-10-11T05:46:17.091Z,4.00
2018-10-11T05:47:17.169Z,0.00
2018-10-11T05:48:17.122Z,4.00
2018-10-11T05:49:17.145Z,0.00
2018-10-11T05:50:17.211Z,4.00
2018-10-11T05:51:17.181Z,4.00
2018-10-11T05:52:17.191Z,0.00
2018-10-11T05:53:17.215Z,0.00
2018-10-11T05:54:17.230Z,0.00
2018-10-11T05:55:17.243Z,4.00
2018-10-11T05:56:17.260Z,4.00
2018-10-11T05:57:17.286Z,4.00
2018-10-11T05:58:17.292Z,0.00
2018-10-11T05:59:17.335Z,0.00
2018-10-11T06:00:17.327Z,4.00
2018-10-11T06:01:17.344Z,0.00
2018-10-11T06:02:17.366Z,4.00
2018-10-11T06:03:17.388Z,4.00
2018-10-11T06:04:17.489Z,0.00
2018-10-11T06:05:17.456Z,4.00
2018-10-11T06:06:17.437Z,4.00
2018-10-11T06:07:17.449Z,0.00
2018-10-11T06:08:17.474Z,0.00
2018-10-11T06:09:17.485Z,0.00
2018-10-11T06:10:17.503Z,0.00
2018-10-11T06:11:17.517Z,0.00
2018-10-11T06:12:17.543Z,0.00
2018-10-11T06:13:17.552Z,4.00
2018-10-11T06:14:17.575Z,4.00
2018-10-11T06:15:17.593Z,4.00
2018-10-11T06:16:17.613Z,0.00
2018-10-11T06:17:17.631Z,4.00
2018-10-11T06:18:17.701Z,4.00
2018-10-11T06:19:17.659Z,4.00
2018-10-11T06:20:17.680Z,4.00
2018-10-11T06:21:17.695Z,4.00
2018-10-11T06:22:17.712Z,4.00
2018-10-11T06:23:17.732Z,4.00
2018-10-11T06:24:17.747Z,4.00
2018-10-11T06:25:17.768Z,4.00
2018-10-11T06:26:17.786Z,4.00
2018-10-11T06:27:17.815Z,4.00
2018-10-11T06:28:17.824Z,4.00
2018-10-11T06:29:17.842Z,4.00
2018-10-11T06:30:17.946Z,0.00
2018-10-11T06:31:17.865Z,0.00
2018-10-11T06:32:17.885Z,0.00
2018-10-11T06:33:17.901Z,0.00
2018-10-11T06:34:17.914Z,4.00
2018-10-11T06:35:17.936Z,4.00
2018-10-11T06:36:17.967Z,4.00
2018-10-11T06:37:17.968Z,8.00
2018-10-11T06:38:17.992Z,4.00
2018-10-11T06:39:18.004Z,8.00
2018-10-11T06:40:18.018Z,8.00
2018-10-11T06:41:18.043Z,12.00
2018-10-11T06:42:18.170Z,8.00
2018-10-11T06:43:18.070Z,12.00
2018-10-11T06:44:18.093Z,16.00
2018-10-11T06:45:18.110Z,20.00
2018-10-11T06:46:18.129Z,28.00
2018-10-11T06:47:18.144Z,28.00
2018-10-11T06:48:18.196Z,28.00
2018-10-11T06:49:18.176Z,28.00
2018-10-11T06:50:18.254Z,32.00
2018-10-11T06:51:18.218Z,32.00
2018-10-11T06:52:18.237Z,32.00
2018-10-11T06:53:18.245Z,32.00
2018-10-11T06:54:18.269Z,40.00
2018-10-11T06:55:18.280Z,36.00
2018-10-11T06:56:18.301Z,40.00
2018-10-11T06:57:18.311Z,36.00
2018-10-11T06:58:18.338Z,36.00
2018-10-11T06:59:18.354Z,44.00
2018-10-11T07:00:18.370Z,56.00
2018-10-11T07:01:18.381Z,64.00
2018-10-11T07:02:18.406Z,72.00
2018-10-11T07:03:18.426Z,80.00
2018-10-11T07:04:18.439Z,92.00
2018-10-11T07:05:18.448Z,100.00
2018-10-11T07:06:18.506Z,108.00
2018-10-11T07:07:18.563Z,120.00
2018-10-11T07:08:18.525Z,128.00
2018-10-11T07:09:18.528Z,148.00
2018-10-11T07:10:18.542Z,172.00
2018-10-11T07:11:18.552Z,200.00
2018-10-11T07:12:18.576Z,220.00
2018-10-11T07:13:18.594Z,236.00
2018-10-11T07:14:18.609Z,256.00
2018-10-11T07:15:18.630Z,272.00
2018-10-11T07:16:18.646Z,284.00
2018-10-11T07:17:18.652Z,292.00
2018-10-11T07:18:18.685Z,284.00
2018-10-11T07:19:18.717Z,256.00
2018-10-11T07:20:18.711Z,240.00
2018-10-11T07:21:18.781Z,248.00
2018-10-11T07:22:18.745Z,272.00
2018-10-11T07:23:18.757Z,296.00
2018-10-11T07:24:18.786Z,320.00
2018-10-11T07:25:18.791Z,360.00
2018-10-11T07:26:18.818Z,396.00
2018-10-11T07:27:18.836Z,424.00
2018-10-11T07:28:18.849Z,440.00
2018-10-11T07:29:18.870Z,440.00
2018-10-11T07:30:18.880Z,436.00
2018-10-11T07:31:18.902Z,436.00
2018-10-11T07:32:18.910Z,456.00
2018-10-11T07:33:18.940Z,448.00
2018-10-11T07:34:18.954Z,472.00
2018-10-11T07:35:19.066Z,460.00
2018-10-11T07:36:18.990Z,460.00
2018-10-11T07:37:19.008Z,456.00
2018-10-11T07:38:19.011Z,444.00
2018-10-11T07:39:19.036Z,448.00
2018-10-11T07:40:19.101Z,444.00
2018-10-11T07:41:19.071Z,444.00
2018-10-11T07:42:19.135Z,468.00
2018-10-11T07:43:19.116Z,512.00
2018-10-11T07:44:19.129Z,576.00
2018-10-11T07:45:19.137Z,672.00
2018-10-11T07:46:19.159Z,744.00
2018-10-11T07:47:19.176Z,768.00
2018-10-11T07:48:19.187Z,760.00
2018-10-11T07:49:19.221Z,864.00
2018-10-11T07:50:19.226Z,976.00
2018-10-11T07:51:19.250Z,1120.00
2018-10-11T07:52:19.260Z,1312.00
2018-10-11T07:53:19.276Z,1508.00
2018-10-11T07:54:19.301Z,1560.00
2018-10-11T07:55:19.311Z,1616.00
2018-10-11T07:56:19.328Z,1536.00
2018-10-11T07:57:19.343Z,1484.00
2018-10-11T07:58:19.370Z,1504.00
2018-10-11T07:59:19.383Z,1556.00
2018-10-11T08:00:19.402Z,1588.00
2018-10-11T08:01:19.544Z,1688.00
2018-10-11T08:02:19.428Z,1764.00
2018-10-11T08:03:19.452Z,1776.00
2018-10-11T08:04:19.470Z,1752.00
2018-10-11T08:05:19.479Z,1876.00
2018-10-11T08:06:19.524Z,1896.00
2018-10-11T08:07:19.591Z,2116.00
2018-10-11T08:08:19.535Z,3080.00
2018-10-11T08:09:19.564Z,3496.00
2018-10-11T08:10:19.631Z,2248.00
2018-10-11T08:11:19.714Z,2088.00
2018-10-11T08:12:19.611Z,2156.00
2018-10-11T08:13:19.645Z,5044.00
2018-10-11T08:14:19.640Z,5504.00
2018-10-11T08:15:19.663Z,5740.00
2018-10-11T08:16:19.731Z,3980.00
2018-10-11T08:17:20.063Z,2336.00
2018-10-11T08:18:19.710Z,3364.00
2018-10-11T08:19:20.049Z,5012.00
2018-10-11T08:20:19.771Z,6268.00
2018-10-11T08:21:19.762Z,7060.00
2018-10-11T08:22:19.787Z,6772.00
2018-10-11T08:24:19.865Z,7492.00
2018-10-11T08:25:20.169Z,7568.00
2018-10-11T08:26:20.183Z,7368.00
2018-10-11T08:27:19.960Z,7376.00
2018-10-11T08:28:19.881Z,7420.00
2018-10-11T08:29:19.900Z,7364.00
2018-10-11T08:30:19.925Z,7396.00
2018-10-11T08:31:19.957Z,6956.00
2018-10-11T08:32:20.016Z,7116.00
2018-10-11T08:33:19.976Z,7536.00
2018-10-11T08:34:19.993Z,7312.00
2018-10-11T08:35:20.006Z,7636.00
2018-10-11T08:36:20.096Z,7372.00
2018-10-11T08:37:20.056Z,7456.00
2018-10-11T08:38:20.124Z,7296.00
2018-10-11T08:39:20.099Z,7512.00
2018-10-11T08:40:20.668Z,7064.00
2018-10-11T08:41:20.140Z,7120.00
2018-10-11T08:42:20.180Z,7656.00
2018-10-11T08:43:20.225Z,7636.00
2018-10-11T08:44:20.273Z,7872.00
2018-10-11T08:45:20.207Z,7720.00
2018-10-11T08:46:20.223Z,7292.00
2018-10-11T08:47:20.246Z,7636.00
2018-10-11T08:48:20.275Z,7592.00
2018-10-11T08:49:20.275Z,7608.00
2018-10-11T08:50:20.324Z,6968.00
2018-10-11T08:51:20.317Z,6900.00
2018-10-11T08:52:20.327Z,7580.00
2018-10-11T08:53:20.357Z,7540.00
2018-10-11T08:54:20.432Z,8384.00
2018-10-11T08:55:20.415Z,8000.00
2018-10-11T08:56:20.411Z,4828.00
2018-10-11T08:57:20.431Z,8292.00
2018-10-11T08:58:20.452Z,7564.00
2018-10-11T08:59:20.572Z,7532.00
2018-10-11T09:00:20.573Z,8156.00
2018-10-11T09:01:20.509Z,8140.00
2018-10-11T09:02:20.526Z,7584.00
2018-10-11T09:03:20.658Z,7516.00
2018-10-11T09:04:20.572Z,7560.00
2018-10-11T09:05:20.681Z,7944.00
2018-10-11T09:06:20.635Z,7360.00
2018-10-11T09:07:20.628Z,8112.00
2018-10-11T09:08:20.639Z,4400.00
2018-10-11T09:09:20.664Z,3936.00
2018-10-11T09:10:20.690Z,5748.00
2018-10-11T09:11:20.861Z,5692.00
2018-10-11T09:12:20.752Z,4252.00
2018-10-11T09:13:20.746Z,8924.00
2018-10-11T09:14:20.756Z,6484.00
2018-10-11T09:15:20.770Z,4448.00
2018-10-11T09:16:20.795Z,8596.00
2018-10-11T09:17:20.885Z,8932.00
2018-10-11T09:18:20.860Z,9088.00
2018-10-11T09:19:20.854Z,8576.00
2018-10-11T09:20:20.874Z,8324.00
2018-10-11T09:21:20.952Z,9032.00
2018-10-11T09:22:20.919Z,8764.00
2018-10-11T09:23:20.995Z,4824.00
2018-10-11T09:24:20.951Z,4624.00
2018-10-11T09:25:20.976Z,8176.00
2018-10-11T09:26:20.995Z,7612.00
2018-10-11T09:27:21.009Z,4824.00
2018-10-11T09:28:21.031Z,4112.00
2018-10-11T09:29:21.050Z,4992.00
2018-10-11T09:30:21.114Z,7620.00
2018-10-11T09:31:21.092Z,7664.00
2018-10-11T09:32:21.113Z,7688.00
2018-10-11T09:33:21.127Z,5960.00
2018-10-11T09:34:21.149Z,4180.00
2018-10-11T09:35:21.164Z,6552.00
2018-10-11T09:36:21.271Z,7476.00
2018-10-11T09:37:21.200Z,7440.00
2018-10-11T09:38:21.220Z,4848.00
2018-10-11T09:39:21.247Z,5856.00
2018-10-11T09:40:21.250Z,7412.00
2018-10-11T09:41:21.283Z,4428.00
2018-10-11T09:42:21.293Z,4548.00
2018-10-11T09:43:21.307Z,4816.00
2018-10-11T09:44:21.336Z,7980.00
2018-10-11T09:45:21.354Z,5780.00
2018-10-11T09:46:21.370Z,5976.00
2018-10-11T09:47:21.405Z,7692.00
2018-10-11T09:48:21.408Z,6912.00
2018-10-11T09:49:21.431Z,4720.00
2018-10-11T09:50:21.442Z,4704.00
2018-10-11T09:51:21.466Z,4780.00
2018-10-11T09:52:21.490Z,5188.00
2018-10-11T09:53:21.708Z,8096.00
2018-10-11T09:54:21.771Z,7244.00
2018-10-11T09:55:21.548Z,8032.00
2018-10-11T09:56:21.563Z,7604.00
2018-10-11T09:57:21.585Z,7472.00
2018-10-11T09:58:21.601Z,5660.00
2018-10-11T09:59:21.639Z,6860.00
2018-10-11T10:00:21.631Z,7920.00
2018-10-11T10:01:21.658Z,6036.00
2018-10-11T10:02:21.681Z,5348.00
2018-10-11T10:03:21.702Z,5116.00
2018-10-11T10:04:21.716Z,4772.00
2018-10-11T10:05:21.738Z,4660.00
2018-10-11T10:06:21.750Z,4720.00
2018-10-11T10:07:21.764Z,4892.00
2018-10-11T10:08:21.993Z,7820.00
2018-10-11T10:09:22.006Z,8136.00
2018-10-11T10:10:22.025Z,7020.00
2018-10-11T10:11:21.852Z,8772.00
2018-10-11T10:12:21.860Z,8672.00
2018-10-11T10:13:21.890Z,5452.00
2018-10-11T10:14:21.899Z,4976.00
2018-10-11T10:15:21.988Z,5068.00
2018-10-11T10:16:21.983Z,5264.00
2018-10-11T10:17:21.964Z,7388.00
2018-10-11T10:18:21.975Z,7984.00
2018-10-11T10:19:21.999Z,7624.00
2018-10-11T10:20:22.019Z,6572.00
2018-10-11T10:21:22.118Z,5364.00
2018-10-11T10:22:22.086Z,7696.00
2018-10-11T10:23:22.076Z,7868.00
2018-10-11T10:24:22.241Z,8340.00
2018-10-11T10:25:22.116Z,7344.00
2018-10-11T10:26:22.133Z,8220.00
2018-10-11T10:27:22.301Z,5396.00
2018-10-11T10:28:22.186Z,7588.00
2018-10-11T10:29:22.191Z,8196.00
2018-10-11T10:30:22.208Z,7064.00
2018-10-11T10:31:22.237Z,7708.00
2018-10-11T10:32:22.247Z,8988.00
2018-10-11T10:33:22.270Z,8784.00
2018-10-11T10:34:22.340Z,9348.00
2018-10-11T10:35:22.308Z,9308.00
2018-10-11T10:36:22.325Z,9584.00
2018-10-11T10:37:22.346Z,9648.00
2018-10-11T10:38:22.366Z,9444.00
2018-10-11T10:39:22.381Z,9580.00
2018-10-11T10:40:22.427Z,9880.00
2018-10-11T10:41:22.415Z,9444.00
2018-10-11T10:42:22.446Z,9368.00
2018-10-11T10:43:22.566Z,9216.00
2018-10-11T10:44:22.494Z,9100.00
2018-10-11T10:45:22.499Z,9344.00
2018-10-11T10:46:22.559Z,9576.00
2018-10-11T10:47:22.548Z,9644.00
2018-10-11T10:48:22.561Z,9608.00
2018-10-11T10:49:22.580Z,8852.00
2018-10-11T10:50:22.596Z,8292.00
2018-10-11T10:51:22.824Z,5740.00
2018-10-11T10:52:22.706Z,4660.00
2018-10-11T10:53:22.856Z,8196.00
2018-10-11T10:54:22.999Z,10396.00
2018-10-11T10:55:22.716Z,10000.00
2018-10-11T10:56:22.716Z,10768.00
2018-10-11T10:57:22.744Z,11464.00
2018-10-11T10:58:22.760Z,9000.00
2018-10-11T10:59:22.778Z,8384.00
2018-10-11T11:00:22.794Z,4860.00
2018-10-11T11:01:22.818Z,4920.00
2018-10-11T11:02:22.839Z,8216.00
2018-10-11T11:03:22.882Z,4468.00
2018-10-11T11:04:22.880Z,5556.00
2018-10-11T11:05:22.923Z,5076.00
2018-10-11T11:06:22.919Z,4836.00
2018-10-11T11:07:23.003Z,5780.00
2018-10-11T11:08:22.993Z,5176.00
2018-10-11T11:09:22.979Z,4908.00
2018-10-11T11:10:23.000Z,6680.00
2018-10-11T11:11:23.019Z,4964.00
2018-10-11T11:12:23.037Z,5068.00
2018-10-11T11:13:23.060Z,5140.00
2018-10-11T11:14:23.081Z,5428.00
2018-10-11T11:15:23.096Z,4696.00
2018-10-11T11:16:23.122Z,11240.00
2018-10-11T11:17:23.140Z,11128.00
2018-10-11T11:18:23.159Z,11084.00
2018-10-11T11:19:23.185Z,10588.00
2018-10-11T11:20:23.199Z,10084.00
2018-10-11T11:21:23.215Z,5196.00
2018-10-11T11:22:23.240Z,9992.00
2018-10-11T11:23:23.255Z,4844.00
2018-10-11T11:24:23.273Z,11584.00
2018-10-11T11:25:23.370Z,11876.00
2018-10-11T11:26:23.316Z,11560.00
2018-10-11T11:27:23.333Z,11608.00
2018-10-11T11:28:23.356Z,11504.00
2018-10-11T11:29:23.364Z,11596.00
2018-10-11T11:30:23.396Z,12032.00
2018-10-11T11:31:23.420Z,11812.00
2018-10-11T11:32:23.438Z,11708.00
2018-10-11T11:33:23.453Z,11860.00
2018-10-11T11:34:23.475Z,12176.00
2018-10-11T11:35:23.486Z,12380.00
2018-10-11T11:36:23.534Z,12052.00
2018-10-11T11:37:23.529Z,11248.00
2018-10-11T11:38:23.567Z,5792.00
2018-10-11T11:39:23.573Z,5496.00
2018-10-11T11:40:23.595Z,5472.00
2018-10-11T11:41:23.609Z,5920.00
2018-10-11T11:42:23.632Z,9196.00
2018-10-11T11:43:23.655Z,10116.00
2018-10-11T11:44:23.669Z,11404.00
2018-10-11T11:45:23.699Z,11888.00
2018-10-11T11:46:23.719Z,7712.00
2018-10-11T11:47:23.736Z,12788.00
2018-10-11T11:48:23.772Z,12880.00
2018-10-11T11:49:23.777Z,12828.00
2018-10-11T11:50:23.845Z,12276.00
2018-10-11T11:51:23.821Z,11144.00
2018-10-11T11:52:23.839Z,9092.00
2018-10-11T11:53:23.857Z,7560.00
2018-10-11T11:54:23.890Z,9728.00
2018-10-11T11:55:23.902Z,11948.00
2018-10-11T11:56:23.927Z,12488.00
2018-10-11T11:57:23.945Z,12808.00
2018-10-11T11:58:23.961Z,12464.00
2018-10-11T11:59:23.992Z,12772.00
2018-10-11T12:00:24.008Z,11492.00
2018-10-11T12:01:24.064Z,7208.00
2018-10-11T12:02:24.051Z,10920.00
2018-10-11T12:03:24.063Z,9276.00
2018-10-11T12:04:24.086Z,9280.00
2018-10-11T12:05:24.107Z,10400.00
2018-10-11T12:06:24.125Z,11892.00
2018-10-11T12:07:24.143Z,11880.00
2018-10-11T12:08:24.169Z,12048.00
2018-10-11T12:09:24.185Z,12424.00
2018-10-11T12:10:24.230Z,7952.00
2018-10-11T12:11:24.238Z,10144.00
2018-10-11T12:12:24.244Z,12308.00
2018-10-11T12:13:24.270Z,11832.00
2018-10-11T12:14:24.288Z,11720.00
2018-10-11T12:15:24.312Z,11804.00
2018-10-11T12:16:24.334Z,10384.00
2018-10-11T12:17:24.341Z,10792.00
2018-10-11T12:18:24.359Z,10476.00
2018-10-11T12:19:24.399Z,8448.00
2018-10-11T12:20:24.411Z,6284.00
2018-10-11T12:21:24.429Z,7864.00
2018-10-11T12:22:24.442Z,10092.00
2018-10-11T12:23:24.463Z,12100.00
2018-10-11T12:24:24.486Z,10656.00
2018-10-11T12:25:24.508Z,11312.00
2018-10-11T12:26:24.563Z,12920.00
2018-10-11T12:27:24.546Z,12636.00
2018-10-11T12:28:24.672Z,12260.00
2018-10-11T12:29:24.590Z,12328.00
2018-10-11T12:30:24.612Z,12940.00
2018-10-11T12:31:24.622Z,13136.00
2018-10-11T12:32:24.644Z,13156.00
2018-10-11T12:33:24.663Z,12528.00
2018-10-11T12:34:24.683Z,12176.00
2018-10-11T12:35:24.698Z,12504.00
2018-10-11T12:36:24.751Z,12812.00
2018-10-11T12:37:24.744Z,12580.00
2018-10-11T12:38:24.770Z,12716.00
2018-10-11T12:39:24.797Z,12724.00
2018-10-11T12:40:24.801Z,12824.00
2018-10-11T12:41:24.826Z,12880.00
2018-10-11T12:42:24.901Z,13016.00
2018-10-11T12:43:24.862Z,12000.00